createdAt,value
2023-03-29T00:00:08.956Z,1.70
2023-03-29T00:02:39.643Z,1.60
2023-03-29T00:05:08.955Z,1.70
2023-03-29T00:07:36.440Z,1.40
2023-03-29T00:10:04.801Z,1.62
2023-03-29T00:12:33.036Z,1.30
2023-03-29T00:15:00.477Z,1.77
2023-03-29T00:17:28.330Z,1.65
2023-03-29T00:19:56.222Z,1.85
2023-03-29T00:22:23.906Z,1.75
2023-03-29T00:24:54.315Z,2.47
2023-03-29T00:27:22.377Z,2.15
2023-03-29T00:29:49.907Z,2.05
2023-03-29T00:32:17.343Z,2.03
2023-03-29T00:34:46.116Z,2.10
2023-03-29T00:37:14.896Z,2.05
2023-03-29T00:39:42.554Z,2.37
2023-03-29T00:42:14.631Z,2.20
2023-03-29T00:45:06.997Z,2.30
2023-03-29T00:47:43.820Z,3.00
2023-03-29T00:50:26.299Z,2.87
2023-03-29T00:53:26.313Z,2.40
2023-03-29T00:55:59.040Z,1.87
2023-03-29T00:58:54.822Z,2.95
2023-03-29T01:01:42.101Z,3.33
2023-03-29T01:04:18.563Z,2.92
2023-03-29T01:07:03.440Z,3.87
2023-03-29T01:09:33.823Z,3.00
2023-03-29T01:12:03.709Z,2.70
2023-03-29T01:14:39.216Z,3.00
2023-03-29T01:17:07.053Z,4.10
2023-03-29T01:19:39.846Z,5.32
2023-03-29T01:25:11.256Z,10.88
2023-03-29T01:27:52.371Z,13.52
2023-03-29T01:30:40.606Z,13.90
2023-03-29T01:33:24.706Z,17.45
2023-03-29T01:36:11.705Z,21.77
2023-03-29T01:38:56.211Z,15.20
2023-03-29T01:41:34.527Z,9.18
2023-03-29T01:44:13.861Z,5.55
2023-03-29T01:46:48.156Z,4.82
2023-03-29T01:49:24.283Z,5.45
2023-03-29T01:52:00.014Z,5.75
2023-03-29T01:54:35.121Z,5.75
2023-03-29T01:57:04.797Z,4.55
2023-03-29T01:59:34.841Z,3.92
2023-03-29T02:02:05.916Z,3.72
2023-03-29T02:04:54.297Z,3.83
2023-03-29T02:07:25.918Z,3.22
2023-03-29T02:09:54.447Z,2.35
2023-03-29T02:12:22.281Z,3.55
2023-03-29T02:14:49.684Z,3.40
2023-03-29T02:17:22.121Z,3.95
2023-03-29T02:19:55.065Z,3.87
2023-03-29T02:22:28.757Z,5.90
2023-03-29T02:24:59.178Z,8.80
2023-03-29T02:27:28.015Z,11.68
2023-03-29T02:29:56.076Z,19.35
2023-03-29T02:32:35.618Z,19.40
2023-03-29T02:35:14.527Z,16.75
2023-03-29T02:37:44.311Z,15.07
2023-03-29T02:40:13.227Z,18.33
2023-03-29T02:42:41.701Z,20.20
2023-03-29T02:45:12.571Z,18.87
2023-03-29T02:47:46.894Z,19.27
2023-03-29T02:50:14.366Z,20.17
2023-03-29T02:52:47.368Z,22.67
2023-03-29T02:55:17.340Z,20.55
2023-03-29T02:57:45.563Z,15.77
2023-03-29T03:00:14.641Z,12.65
2023-03-29T03:02:42.833Z,12.50
2023-03-29T03:05:10.948Z,11.00
2023-03-29T03:07:40.529Z,11.40
2023-03-29T03:10:10.152Z,8.40
2023-03-29T03:12:38.307Z,8.90
2023-03-29T03:15:06.748Z,8.27
2023-03-29T03:17:39.928Z,7.18
2023-03-29T03:20:13.774Z,6.37
2023-03-29T03:22:44.010Z,6.30
2023-03-29T03:25:11.749Z,7.55
2023-03-29T03:27:39.742Z,6.87
2023-03-29T03:30:07.845Z,8.05
2023-03-29T03:32:38.482Z,9.15
2023-03-29T03:35:07.525Z,9.52
2023-03-29T03:37:34.951Z,8.90
2023-03-29T03:40:03.704Z,8.98
2023-03-29T03:42:31.325Z,7.03
2023-03-29T03:44:58.930Z,6.87
2023-03-29T03:47:28.247Z,7.57
2023-03-29T03:49:56.374Z,7.22
2023-03-29T03:52:25.307Z,6.68
2023-03-29T03:54:53.307Z,6.07
2023-03-29T03:57:24.625Z,5.37
2023-03-29T03:59:52.855Z,6.32
2023-03-29T04:02:22.060Z,6.43
2023-03-29T04:04:49.950Z,7.07
2023-03-29T04:07:18.329Z,6.15
2023-03-29T04:09:46.695Z,6.10
2023-03-29T04:12:14.867Z,5.00
2023-03-29T04:14:42.761Z,3.95
2023-03-29T04:17:10.260Z,5.00
2023-03-29T04:19:39.206Z,4.90
2023-03-29T04:22:06.587Z,6.87
2023-03-29T04:24:34.416Z,8.05
2023-03-29T04:27:04.014Z,8.80
2023-03-29T04:29:31.668Z,8.10
2023-03-29T04:32:01.243Z,7.85
2023-03-29T04:34:29.450Z,7.93
2023-03-29T04:36:58.865Z,7.60
2023-03-29T04:39:32.992Z,7.62
2023-03-29T04:42:02.881Z,7.97
2023-03-29T04:44:33.514Z,7.55
2023-03-29T04:47:01.562Z,7.60
2023-03-29T04:49:30.431Z,6.57
2023-03-29T04:52:00.757Z,6.53
2023-03-29T04:54:28.597Z,5.68
2023-03-29T04:56:56.808Z,5.55
2023-03-29T04:59:25.095Z,4.28
2023-03-29T05:01:52.901Z,4.30
2023-03-29T05:04:20.721Z,3.40
2023-03-29T05:06:49.141Z,3.10
2023-03-29T05:09:17.455Z,2.97
2023-03-29T05:11:45.187Z,2.55
2023-03-29T05:14:13.056Z,2.37
2023-03-29T05:16:42.421Z,2.30
2023-03-29T05:19:11.427Z,2.30
2023-03-29T05:21:40.078Z,3.10
2023-03-29T05:24:08.350Z,3.60
2023-03-29T05:26:37.385Z,4.40
2023-03-29T05:29:04.907Z,6.37
2023-03-29T05:31:33.099Z,8.50
2023-03-29T05:34:00.829Z,9.40
2023-03-29T05:36:29.862Z,8.80
2023-03-29T05:38:57.702Z,9.40
2023-03-29T05:41:26.040Z,7.60
2023-03-29T05:43:54.756Z,7.07
2023-03-29T05:46:23.328Z,6.55
2023-03-29T05:48:51.571Z,6.12
2023-03-29T05:51:19.426Z,5.53
2023-03-29T05:53:47.221Z,5.95
2023-03-29T05:56:16.365Z,5.85
2023-03-29T05:58:43.928Z,5.85
2023-03-29T06:01:14.694Z,6.82
2023-03-29T06:03:43.481Z,7.68
2023-03-29T06:06:11.181Z,8.10
2023-03-29T06:08:38.734Z,7.68
2023-03-29T06:11:08.904Z,7.10
2023-03-29T06:13:42.105Z,5.97
2023-03-29T06:16:10.808Z,5.32
2023-03-29T06:18:40.327Z,5.28
2023-03-29T06:21:09.321Z,5.30
2023-03-29T06:23:37.639Z,6.00
2023-03-29T06:26:05.948Z,6.28
2023-03-29T06:28:33.575Z,6.75
2023-03-29T06:31:02.907Z,6.55
2023-03-29T06:33:32.498Z,7.00
2023-03-29T06:36:01.017Z,6.70
2023-03-29T06:38:28.872Z,6.10
2023-03-29T06:41:04.873Z,6.40
2023-03-29T06:43:34.767Z,5.43
2023-03-29T06:46:08.721Z,5.50
2023-03-29T06:48:38.477Z,4.68
2023-03-29T06:51:07.511Z,4.32
2023-03-29T06:53:36.674Z,4.20
2023-03-29T06:56:09.034Z,4.90
2023-03-29T06:58:37.646Z,5.78
2023-03-29T07:01:07.137Z,5.53
2023-03-29T07:03:36.759Z,5.37
2023-03-29T07:06:09.811Z,5.20
2023-03-29T07:08:43.670Z,5.60
2023-03-29T07:11:13.148Z,2.90
2023-03-29T07:13:42.636Z,2.22
2023-03-29T07:16:14.786Z,2.17
2023-03-29T07:18:44.662Z,2.05
2023-03-29T07:21:14.732Z,2.10
2023-03-29T07:23:42.537Z,1.90
2023-03-29T07:26:12.102Z,1.85
2023-03-29T07:28:40.131Z,2.08
2023-03-29T07:31:10.935Z,1.90
2023-03-29T07:33:40.631Z,1.95
2023-03-29T07:36:09.925Z,2.10
2023-03-29T07:38:38.007Z,1.58
2023-03-29T07:41:08.111Z,1.20
2023-03-29T07:43:36.497Z,1.10
2023-03-29T07:46:05.366Z,1.50
2023-03-29T07:48:33.770Z,1.65
2023-03-29T07:51:03.877Z,1.08
2023-03-29T07:53:32.198Z,0.85
2023-03-29T07:56:01.665Z,0.85
2023-03-29T07:58:30.720Z,1.10
2023-03-29T08:01:00.243Z,0.90
2023-03-29T08:03:29.249Z,0.88
2023-03-29T08:05:56.861Z,1.05
2023-03-29T08:08:24.716Z,0.98
2023-03-29T08:10:53.156Z,1.77
2023-03-29T08:13:21.560Z,0.90
2023-03-29T08:15:50.353Z,1.10
2023-03-29T08:18:18.761Z,1.17
2023-03-29T08:20:46.322Z,0.98
2023-03-29T08:23:13.752Z,1.33
2023-03-29T08:25:45.748Z,0.93
2023-03-29T08:28:13.685Z,0.90
2023-03-29T08:30:42.177Z,1.62
2023-03-29T08:33:10.012Z,0.90
2023-03-29T08:35:37.675Z,1.10
2023-03-29T08:38:06.300Z,0.90
2023-03-29T08:40:34.506Z,1.37
2023-03-29T08:43:17.700Z,1.27
2023-03-29T08:46:27.462Z,1.45
2023-03-29T08:49:02.016Z,1.52
2023-03-29T08:51:37.299Z,1.33
2023-03-29T08:54:21.843Z,1.67
2023-03-29T08:56:51.954Z,2.12
2023-03-29T08:59:26.651Z,1.48
2023-03-29T09:01:56.698Z,1.35
2023-03-29T09:04:30.453Z,1.27
2023-03-29T09:06:59.442Z,1.67
2023-03-29T09:09:34.804Z,8.40
2023-03-29T09:12:35.787Z,1.67
2023-03-29T09:15:24.943Z,2.80
2023-03-29T09:18:11.336Z,1.92
2023-03-29T09:20:47.950Z,1.77
2023-03-29T09:23:29.392Z,1.40
2023-03-29T09:26:15.375Z,1.05
2023-03-29T09:29:27.885Z,7.60
2023-03-29T09:31:56.609Z,4.87
2023-03-29T09:34:31.764Z,1.67
2023-03-29T09:37:02.402Z,1.50
2023-03-29T09:39:30.470Z,1.67
2023-03-29T09:42:01.578Z,1.25
2023-03-29T09:44:37.550Z,1.85
2023-03-29T09:47:18.607Z,1.70
2023-03-29T09:49:49.788Z,1.10
2023-03-29T09:52:19.985Z,1.10
2023-03-29T09:54:48.299Z,1.58
2023-03-29T09:57:27.618Z,1.05
2023-03-29T09:59:55.226Z,1.30
2023-03-29T10:02:23.132Z,1.58
2023-03-29T10:04:55.682Z,1.80
2023-03-29T10:07:23.513Z,1.15
2023-03-29T10:09:55.152Z,1.60
2023-03-29T10:12:23.123Z,1.40
2023-03-29T10:14:54.139Z,1.30
2023-03-29T10:17:28.197Z,1.40
2023-03-29T10:19:58.399Z,1.33
2023-03-29T10:22:28.539Z,1.80
2023-03-29T10:25:17.964Z,1.55
2023-03-29T10:27:47.881Z,1.80
2023-03-29T10:30:22.174Z,1.73
2023-03-29T10:32:58.042Z,1.85
2023-03-29T10:35:40.047Z,2.20
2023-03-29T10:38:16.152Z,2.12
2023-03-29T10:40:51.827Z,2.80
2023-03-29T10:43:19.495Z,1.60
2023-03-29T10:45:51.747Z,1.83
2023-03-29T10:48:29.746Z,1.95
2023-03-29T10:51:04.480Z,1.48
2023-03-29T10:53:34.690Z,1.50
2023-03-29T10:56:24.765Z,1.73
2023-03-29T10:59:14.561Z,1.48
2023-03-29T11:01:47.757Z,1.30
2023-03-29T11:04:34.664Z,1.58
2023-03-29T11:07:23.992Z,1.40
2023-03-29T11:10:20.177Z,1.48
2023-03-29T11:12:59.306Z,1.30
2023-03-29T11:15:57.672Z,1.60
2023-03-29T11:18:47.372Z,1.50
2023-03-29T11:21:27.246Z,1.30
2023-03-29T11:24:38.346Z,1.70
2023-03-29T11:27:57.602Z,1.52
2023-03-29T11:30:31.161Z,1.50
2023-03-29T11:33:12.963Z,7.45
2023-03-29T11:36:02.456Z,1.75
2023-03-29T11:38:40.122Z,1.70
2023-03-29T11:41:16.179Z,5.18
2023-03-29T11:43:51.286Z,2.80
2023-03-29T11:46:28.845Z,2.87
2023-03-29T11:49:02.614Z,23.73
2023-03-29T11:51:46.248Z,3.15
2023-03-29T11:54:28.808Z,1.67
2023-03-29T11:57:02.017Z,1.42
2023-03-29T11:59:38.955Z,1.85
2023-03-29T12:02:30.146Z,2.55
2023-03-29T12:05:01.231Z,1.70
2023-03-29T12:07:42.301Z,1.90
2023-03-29T12:10:21.163Z,2.10
2023-03-29T12:12:56.523Z,2.22
2023-03-29T12:15:26.175Z,2.10
2023-03-29T12:18:10.461Z,2.50
2023-03-29T12:20:39.779Z,2.40
2023-03-29T12:23:08.700Z,2.55
2023-03-29T12:25:48.318Z,3.08
2023-03-29T12:28:26.850Z,2.60
2023-03-29T12:31:14.352Z,2.58
2023-03-29T12:34:23.514Z,5.00
2023-03-29T12:37:35.926Z,2.65
2023-03-29T12:40:14.374Z,2.15
2023-03-29T12:42:57.683Z,2.00
2023-03-29T12:45:48.710Z,2.22
2023-03-29T12:48:19.283Z,3.37
2023-03-29T12:51:03.013Z,2.60
2023-03-29T12:53:35.165Z,2.37
2023-03-29T12:56:03.198Z,2.12
2023-03-29T12:58:39.863Z,2.30
2023-03-29T13:01:32.186Z,3.47
2023-03-29T13:03:59.596Z,3.53
2023-03-29T13:06:49.435Z,2.72
2023-03-29T13:09:25.034Z,3.67
2023-03-29T13:11:53.963Z,3.45
2023-03-29T13:14:25.099Z,2.62
2023-03-29T13:16:53.696Z,2.45
2023-03-29T13:19:50.057Z,3.35
2023-03-29T13:22:32.986Z,3.05
2023-03-29T13:25:42.210Z,2.90
2023-03-29T13:28:33.214Z,1.73
2023-03-29T13:31:25.878Z,2.10
2023-03-29T13:34:01.275Z,3.50
2023-03-29T13:36:53.634Z,2.75
2023-03-29T13:41:52.835Z,2.87
2023-03-29T13:44:47.731Z,3.12
2023-03-29T13:47:38.466Z,2.15
2023-03-29T13:50:29.741Z,2.37
2023-03-29T13:53:06.039Z,2.40
2023-03-29T13:55:40.836Z,2.83
2023-03-29T13:58:41.935Z,2.50
2023-03-29T14:01:28.422Z,2.60
2023-03-29T14:03:56.982Z,2.60
2023-03-29T14:06:27.484Z,2.65
2023-03-29T14:08:55.459Z,2.60
2023-03-29T14:11:28.914Z,3.25
2023-03-29T14:14:01.672Z,2.20
2023-03-29T14:16:31.680Z,2.50
2023-03-29T14:19:00.195Z,2.35
2023-03-29T14:21:27.670Z,2.37
2023-03-29T14:23:59.975Z,2.83
2023-03-29T14:26:33.467Z,2.08
2023-03-29T14:29:02.464Z,2.30
2023-03-29T14:31:32.538Z,2.50
2023-03-29T14:34:01.463Z,2.95
2023-03-29T14:36:31.116Z,7.72
2023-03-29T14:39:03.571Z,2.95
2023-03-29T14:41:36.754Z,3.40
2023-03-29T14:44:07.708Z,6.55
2023-03-29T14:46:36.470Z,9.82
2023-03-29T14:49:05.082Z,4.15
2023-03-29T14:51:32.539Z,3.35
2023-03-29T14:54:02.775Z,2.33
2023-03-29T14:56:32.578Z,3.00
2023-03-29T14:59:04.525Z,2.20
2023-03-29T15:01:32.307Z,2.17
2023-03-29T15:04:09.045Z,2.30
2023-03-29T15:06:41.819Z,2.20
2023-03-29T15:09:24.361Z,2.15
2023-03-29T15:11:56.732Z,3.62
2023-03-29T15:14:26.965Z,3.12
2023-03-29T15:17:04.395Z,2.55
2023-03-29T15:19:32.466Z,2.20
2023-03-29T15:22:05.988Z,2.67
2023-03-29T15:24:33.980Z,1.87
2023-03-29T15:27:20.992Z,2.28
2023-03-29T15:29:48.893Z,2.10
2023-03-29T15:32:24.627Z,1.62
2023-03-29T15:35:07.968Z,2.80
2023-03-29T15:37:35.927Z,2.50
2023-03-29T15:40:09.619Z,2.95
2023-03-29T15:42:37.096Z,2.40
2023-03-29T15:45:06.409Z,2.37
2023-03-29T15:47:33.987Z,3.00
2023-03-29T15:50:02.019Z,2.30
2023-03-29T15:52:29.712Z,2.60
2023-03-29T15:54:57.284Z,3.40
2023-03-29T15:57:24.814Z,2.83
2023-03-29T15:59:52.574Z,2.78
2023-03-29T16:02:23.398Z,2.80
2023-03-29T16:04:51.354Z,2.28
2023-03-29T16:07:19.050Z,2.03
2023-03-29T16:09:46.969Z,2.55
2023-03-29T16:12:16.267Z,3.83
2023-03-29T16:14:43.680Z,2.22
2023-03-29T16:17:11.547Z,9.80
2023-03-29T16:19:39.204Z,8.20
2023-03-29T16:22:07.539Z,4.80
2023-03-29T16:24:35.803Z,2.62
2023-03-29T16:27:04.114Z,2.65
2023-03-29T16:29:31.754Z,2.65
2023-03-29T16:31:59.245Z,2.28
2023-03-29T16:34:27.083Z,2.42
2023-03-29T16:36:54.582Z,6.05
2023-03-29T16:39:21.976Z,4.12
2023-03-29T16:41:50.334Z,2.65
2023-03-29T16:44:27.623Z,2.83
2023-03-29T16:46:57.793Z,3.20
2023-03-29T16:49:25.310Z,3.53
2023-03-29T16:51:52.785Z,3.60
2023-03-29T16:54:20.562Z,4.45
2023-03-29T16:56:48.325Z,4.37
2023-03-29T16:59:16.572Z,3.22
2023-03-29T17:01:44.578Z,3.45
2023-03-29T17:04:12.114Z,2.28
2023-03-29T17:06:39.583Z,2.97
2023-03-29T17:09:07.436Z,2.30
2023-03-29T17:11:35.859Z,4.28
2023-03-29T17:14:03.382Z,6.03
2023-03-29T17:16:31.329Z,3.33
2023-03-29T17:19:02.347Z,2.75
2023-03-29T17:21:29.849Z,1.90
2023-03-29T17:23:57.681Z,1.52
2023-03-29T17:26:26.058Z,1.30
2023-03-29T17:28:53.438Z,1.48
2023-03-29T17:31:21.370Z,1.25
2023-03-29T17:33:51.930Z,1.70
2023-03-29T17:36:23.875Z,1.80
2023-03-29T17:38:51.785Z,2.08
2023-03-29T17:41:19.337Z,3.10
2023-03-29T17:43:47.818Z,1.90
2023-03-29T17:46:16.749Z,2.42
2023-03-29T17:48:44.292Z,2.80
2023-03-29T17:51:11.685Z,2.00
2023-03-29T17:53:39.358Z,2.12
2023-03-29T17:56:07.332Z,2.55
2023-03-29T17:58:34.785Z,2.60
2023-03-29T18:01:10.030Z,2.53
2023-03-29T18:03:38.102Z,3.12
2023-03-29T18:06:06.622Z,5.35
2023-03-29T18:08:34.870Z,3.97
2023-03-29T18:11:11.773Z,3.10
2023-03-29T18:13:39.949Z,3.35
2023-03-29T18:16:09.036Z,3.25
2023-03-29T18:18:37.261Z,3.28
2023-03-29T18:21:06.860Z,3.20
2023-03-29T18:23:34.574Z,3.05
2023-03-29T18:26:03.782Z,5.05
2023-03-29T18:28:31.463Z,4.75
2023-03-29T18:30:59.369Z,3.67
2023-03-29T18:33:27.208Z,3.00
2023-03-29T18:35:54.654Z,3.20
2023-03-29T18:38:22.678Z,3.53
2023-03-29T18:40:50.523Z,3.28
2023-03-29T18:43:18.577Z,3.50
2023-03-29T18:45:47.572Z,3.85
2023-03-29T18:48:15.584Z,4.53
2023-03-29T18:50:46.992Z,4.10
2023-03-29T18:53:15.149Z,4.75
2023-03-29T18:55:43.095Z,4.93
2023-03-29T18:58:11.080Z,6.05
2023-03-29T19:00:40.574Z,6.55
2023-03-29T19:03:08.625Z,5.18
2023-03-29T19:05:39.767Z,4.90
2023-03-29T19:08:08.877Z,4.53
2023-03-29T19:10:37.321Z,3.53
2023-03-29T19:13:05.001Z,3.87
2023-03-29T19:15:34.656Z,3.42
2023-03-29T19:18:02.702Z,3.90
2023-03-29T19:20:30.462Z,3.55
2023-03-29T19:22:58.211Z,4.15
2023-03-29T19:25:25.834Z,3.53
2023-03-29T19:27:53.309Z,3.35
2023-03-29T19:30:23.307Z,2.90
2023-03-29T19:32:51.551Z,4.68
2023-03-29T19:35:19.070Z,7.62
2023-03-29T19:37:46.779Z,5.68
2023-03-29T19:40:14.356Z,4.95
2023-03-29T19:42:41.952Z,4.32
2023-03-29T19:45:10.740Z,5.90
2023-03-29T19:47:38.180Z,7.68
2023-03-29T19:50:07.014Z,7.05
2023-03-29T19:52:35.190Z,6.10
2023-03-29T19:55:02.628Z,4.30
2023-03-29T19:57:30.799Z,3.25
2023-03-29T19:59:58.617Z,3.33
2023-03-29T20:02:26.238Z,2.92
2023-03-29T20:04:55.048Z,2.90
2023-03-29T20:07:22.551Z,3.28
2023-03-29T20:09:49.940Z,3.65
2023-03-29T20:12:17.625Z,3.97
2023-03-29T20:14:45.020Z,3.60
2023-03-29T20:17:13.110Z,3.65
2023-03-29T20:19:44.009Z,3.47
2023-03-29T20:22:12.080Z,3.83
2023-03-29T20:24:39.531Z,4.15
2023-03-29T20:27:07.252Z,3.92
2023-03-29T20:29:34.659Z,3.97
2023-03-29T20:32:02.275Z,4.60
2023-03-29T20:34:29.982Z,4.45
2023-03-29T20:37:00.883Z,4.78
2023-03-29T20:39:29.574Z,5.10
2023-03-29T20:41:58.013Z,5.68
2023-03-29T20:44:28.615Z,4.90
2023-03-29T20:47:03.304Z,7.72
2023-03-29T20:49:37.260Z,8.70
2023-03-29T20:52:15.479Z,7.82
2023-03-29T20:54:44.564Z,24.08
2023-03-29T20:57:16.481Z,15.73
2023-03-29T21:02:14.612Z,17.20
2023-03-29T21:04:42.137Z,31.40
2023-03-29T21:07:09.878Z,30.52
2023-03-29T21:09:37.409Z,25.55
2023-03-29T21:12:04.820Z,20.30
2023-03-29T21:14:33.058Z,13.05
2023-03-29T21:17:00.640Z,11.43
2023-03-29T21:19:28.160Z,13.60
2023-03-29T21:21:55.810Z,12.80
2023-03-29T21:24:23.236Z,10.23
2023-03-29T21:26:51.034Z,8.73
2023-03-29T21:29:18.798Z,9.27
2023-03-29T21:31:46.331Z,7.40
2023-03-29T21:34:15.091Z,7.78
2023-03-29T21:36:42.859Z,7.90
2023-03-29T21:39:10.363Z,7.65
2023-03-29T21:41:37.794Z,7.70
2023-03-29T21:44:05.607Z,7.32
2023-03-29T21:46:33.098Z,7.47
2023-03-29T21:49:00.632Z,7.35
2023-03-29T21:51:28.368Z,7.75
2023-03-29T21:53:55.986Z,7.85
2023-03-29T21:56:23.497Z,7.72
2023-03-29T21:58:51.258Z,7.35
2023-03-29T22:01:18.796Z,6.65
2023-03-29T22:03:47.523Z,7.93
2023-03-29T22:06:15.277Z,7.00
2023-03-29T22:08:42.801Z,7.55
2023-03-29T22:11:13.970Z,6.57
2023-03-29T22:13:42.298Z,6.62
2023-03-29T22:16:16.789Z,6.68
2023-03-29T22:18:49.268Z,6.87
2023-03-29T22:21:19.911Z,7.15
2023-03-29T22:23:48.475Z,6.53
2023-03-29T22:26:17.158Z,7.07
2023-03-29T22:28:45.415Z,7.80
2023-03-29T22:31:15.022Z,7.87
2023-03-29T22:33:43.142Z,7.62
2023-03-29T22:36:24.987Z,8.10
2023-03-29T22:38:52.603Z,8.23
2023-03-29T22:41:23.578Z,8.52
2023-03-29T22:43:52.573Z,7.75
2023-03-29T22:46:20.972Z,7.62
2023-03-29T22:48:48.651Z,7.87
2023-03-29T22:51:16.765Z,7.85
2023-03-29T22:53:44.834Z,7.62
2023-03-29T22:56:13.103Z,7.18
2023-03-29T22:58:40.501Z,7.40
2023-03-29T23:01:08.609Z,8.55
2023-03-29T23:03:36.834Z,7.90
2023-03-29T23:06:04.933Z,7.15
2023-03-29T23:08:33.793Z,8.23
2023-03-29T23:11:02.126Z,7.43
2023-03-29T23:13:30.596Z,7.57
2023-03-29T23:16:00.107Z,8.13
2023-03-29T23:18:29.494Z,8.02
2023-03-29T23:20:57.986Z,7.60
2023-03-29T23:23:26.933Z,7.55
2023-03-29T23:25:55.622Z,7.65
2023-03-29T23:28:30.196Z,8.00
2023-03-29T23:31:01.077Z,7.97
2023-03-29T23:33:33.507Z,8.02
2023-03-29T23:36:03.820Z,8.32
2023-03-29T23:38:33.206Z,7.60
2023-03-29T23:41:03.384Z,7.53
2023-03-29T23:43:33.237Z,8.15
2023-03-29T23:46:07.008Z,7.70
2023-03-29T23:48:34.712Z,7.22
2023-03-29T23:51:03.202Z,7.12
2023-03-29T23:53:31.523Z,6.57
2023-03-29T23:56:01.430Z,6.57
2023-03-29T23:58:33.645Z,6.90
